createdAt,value
2022-10-03T00:03:38.389Z,11.45
2022-10-03T00:14:10.443Z,11.52
2022-10-03T00:24:38.016Z,11.42
2022-10-03T00:35:14.851Z,11.41
2022-10-03T00:45:42.297Z,11.24
2022-10-03T00:56:22.395Z,11.21
2022-10-03T01:06:47.402Z,11.00
2022-10-03T01:17:21.055Z,11.13
2022-10-03T01:28:07.266Z,11.24
2022-10-03T01:38:42.026Z,11.17
2022-10-03T01:49:07.232Z,11.25
2022-10-03T01:59:42.864Z,11.31
2022-10-03T02:10:24.626Z,11.04
2022-10-03T02:20:54.255Z,11.10
2022-10-03T02:31:28.358Z,11.12
2022-10-03T02:42:08.691Z,11.11
2022-10-03T02:52:30.011Z,11.22
2022-10-03T03:02:54.777Z,11.22
2022-10-03T03:13:22.479Z,11.02
2022-10-03T03:23:43.852Z,10.97
2022-10-03T03:34:11.649Z,11.04
2022-10-03T03:44:48.254Z,11.00
2022-10-03T03:55:19.101Z,10.99
2022-10-03T04:06:02.241Z,10.84
2022-10-03T04:17:00.712Z,10.88
2022-10-03T04:27:29.771Z,10.96
2022-10-03T04:37:51.089Z,10.88
2022-10-03T04:48:35.688Z,10.91
2022-10-03T04:59:15.824Z,10.82
2022-10-03T05:09:45.448Z,10.95
2022-10-03T05:20:09.907Z,10.93
2022-10-03T05:30:35.381Z,10.93
2022-10-03T05:40:59.827Z,10.77
2022-10-03T05:51:40.942Z,10.76
2022-10-03T06:02:11.963Z,10.80
2022-10-03T06:12:42.692Z,10.91
2022-10-03T06:23:27.210Z,10.91
2022-10-03T06:34:08.258Z,11.11
2022-10-03T06:44:32.771Z,11.28
2022-10-03T06:55:13.056Z,11.56
2022-10-03T07:05:53.338Z,11.74
2022-10-03T07:16:33.708Z,11.76
2022-10-03T07:26:58.303Z,11.86
2022-10-03T07:37:58.713Z,12.17
2022-10-03T07:48:35.325Z,12.85
2022-10-03T07:59:04.714Z,13.23
2022-10-03T08:09:38.309Z,13.49
2022-10-03T08:20:07.841Z,13.62
2022-10-03T08:30:49.147Z,13.81
2022-10-03T08:41:29.388Z,14.03
2022-10-03T08:51:50.784Z,14.28
2022-10-03T09:02:36.086Z,14.38
2022-10-03T09:13:16.469Z,14.74
2022-10-03T09:23:40.913Z,15.06
2022-10-03T09:34:28.871Z,15.13
2022-10-03T09:45:09.943Z,15.54
2022-10-03T09:55:43.525Z,15.81
2022-10-03T10:06:17.767Z,16.11
2022-10-03T10:16:49.666Z,16.15
2022-10-03T10:27:33.245Z,16.30
2022-10-03T10:38:15.349Z,16.46
2022-10-03T10:48:42.698Z,16.27
2022-10-03T10:59:22.857Z,16.32
2022-10-03T11:09:52.619Z,16.39
2022-10-03T11:20:36.946Z,16.42
2022-10-03T11:31:17.192Z,16.46
2022-10-03T11:41:47.625Z,16.87
2022-10-03T11:52:08.949Z,16.60
2022-10-03T12:02:34.524Z,17.04
2022-10-03T12:12:57.309Z,17.21
2022-10-03T12:23:21.788Z,17.04
2022-10-03T12:33:46.878Z,17.00
2022-10-03T12:44:28.472Z,17.43
2022-10-03T12:55:10.126Z,17.50
2022-10-03T13:05:55.658Z,18.03
2022-10-03T13:16:34.859Z,17.45
2022-10-03T13:26:56.198Z,17.20
2022-10-03T13:37:40.657Z,17.10
2022-10-03T13:48:07.394Z,17.39
2022-10-03T13:58:30.477Z,17.35
2022-10-03T14:09:27.990Z,17.30
2022-10-03T14:20:07.980Z,17.37
2022-10-03T14:30:31.265Z,17.07
2022-10-03T14:41:02.775Z,17.06
2022-10-03T14:51:30.324Z,17.35
2022-10-03T15:01:55.901Z,17.32
2022-10-03T15:12:22.457Z,17.12
2022-10-03T15:22:49.797Z,16.77
2022-10-03T15:33:16.663Z,16.79
2022-10-03T15:43:50.805Z,16.86
2022-10-03T15:54:15.977Z,16.97
2022-10-03T16:04:41.499Z,16.45
2022-10-03T16:15:17.171Z,16.32
2022-10-03T16:25:43.480Z,16.10
2022-10-03T16:36:06.191Z,15.99
2022-10-03T16:46:31.417Z,15.77
2022-10-03T16:56:57.989Z,15.65
2022-10-03T17:07:23.592Z,15.43
2022-10-03T17:18:03.740Z,15.43
2022-10-03T17:28:37.639Z,15.02
2022-10-03T17:39:08.356Z,15.04
2022-10-03T17:49:40.469Z,14.70
2022-10-03T18:00:07.625Z,14.48
2022-10-03T18:10:31.751Z,14.24
2022-10-03T18:21:04.153Z,13.94
2022-10-03T18:31:26.660Z,13.77
2022-10-03T18:41:50.751Z,13.55
2022-10-03T18:52:19.998Z,13.40
2022-10-03T19:02:44.407Z,13.16
2022-10-03T19:13:05.737Z,12.97
2022-10-03T19:23:38.604Z,13.04
2022-10-03T19:34:20.265Z,12.89
2022-10-03T19:44:42.020Z,12.77
2022-10-03T19:55:32.965Z,12.80
2022-10-03T20:06:13.128Z,12.82
2022-10-03T20:16:41.003Z,12.79
2022-10-03T20:27:17.797Z,12.81
2022-10-03T20:37:39.401Z,12.84
2022-10-03T20:48:03.651Z,12.78
2022-10-03T20:58:36.067Z,12.76
2022-10-03T21:08:58.343Z,12.70
2022-10-03T21:19:22.697Z,12.62
2022-10-03T21:30:02.498Z,12.50
2022-10-03T21:40:46.916Z,12.42
2022-10-03T21:51:17.416Z,12.32
2022-10-03T22:01:48.658Z,12.18
2022-10-03T22:12:10.776Z,12.30
2022-10-03T22:22:56.061Z,12.41
2022-10-03T22:33:22.648Z,12.21
2022-10-03T22:43:44.907Z,12.30
2022-10-03T22:54:10.257Z,12.51
2022-10-03T23:04:34.990Z,12.36
2022-10-03T23:14:58.704Z,12.32
2022-10-03T23:25:26.642Z,12.32
2022-10-03T23:35:48.945Z,12.20
2022-10-03T23:46:12.911Z,12.28
2022-10-03T23:56:44.769Z,12.37
